Flight Track Log - Related Links

Times and Time Zones

All times are in EDT time to prevent confusion due to time zone crossing. See the ASQ3811 flight status page for this flight to view local times or setup timezone preferences in your user account.


Time Position Orientation Groundspeed Altitude Reporting Facility
EDT Latitude Longitude Course Direction KTS MPH feet Rate Location/Type
Fri 06:08:32 AM 36.8889 -76.2125 300° West 173 199 500  Level Washington Center
Fri 06:09:51 AM 36.8425 -76.2744 227° Southwest 220 253 4,100 2,409 Climbing Washington Center
Fri 06:10:44 AM 36.8694 -76.3267 303° West 219 252 5,800 2,089 Climbing Washington Center
Fri 06:11:00 AM 37.0276 -76.4718 302° West  Level FlightAware Approximate
Fri 06:11:43 AM 36.9147 -76.3997 308° West 238 274 8,000  Level Washington Center
Fri 06:12:00 AM 37.0667 -76.5667 302° West  Level FlightAware Approximate
Fri 06:12:43 AM 36.9603 -76.4783 306° West 263 303 10,200  Level Washington Center
Fri 06:13:00 AM 37.1120 -76.6597 300° West  Level FlightAware Approximate
Fri 06:13:41 AM 37.0094 -76.5647 305° West 288 331 11,200  Level Washington Center
Fri 06:14:44 AM 37.0672 -76.6617 307° West 325 374 12,200 1,000 Climbing Washington Center
Fri 06:15:41 AM 37.1267 -76.7642 306° West 352 405 13,200 1,008 Climbing Washington Center
Fri 06:16:43 AM 37.1881 -76.8719 306° West 367 422 14,200 1,150 Climbing Washington Center
Fri 06:17:41 AM 37.2494 -76.9853 304° West 389 448 15,500 1,220 Climbing Washington Center
Fri 06:18:41 AM 37.3175 -77.0672 316° Northwest 384 442 16,600 1,210 Climbing Washington Center
Fri 06:19:45 AM 37.4342 -77.0722 358° North 363 418 18,000 1,100 Climbing Washington Center
Fri 06:20:41 AM 37.5328 -77.0294 19° North 382 440 18,800 1,086 Climbing Washington Center
Fri 06:21:41 AM 37.6375 -76.9792 21° North 394 453 20,100 1,250 Climbing Washington Center
Fri 06:22:41 AM 37.7425 -76.9233 23° Northeast 406 467 21,300 1,230 Climbing Washington Center
Fri 06:23:43 AM 37.8494 -76.8647 23° Northeast 412 474 22,600 1,180 Climbing Washington Center
Fri 06:24:43 AM 37.9586 -76.8058 23° Northeast 412 474 23,700 1,068 Climbing Washington Center
Fri 06:25:41 AM 38.0656 -76.7494 23° Northeast 412 474 24,700 650 Climbing Washington Center
Fri 06:26:43 AM 38.1786 -76.6881 23° Northeast 417 480 25,000 149 Climbing Washington Center
Fri 06:27:42 AM 38.2897 -76.6286 23° Northeast 422 486 25,000  Level Washington Center
Fri 06:28:42 AM 38.3986 -76.5719 22° Northeast 422 486 25,000  Level Washington Center
Fri 06:29:45 AM 38.5094 -76.5122 23° Northeast 422 486 25,000  Level Washington Center
Fri 06:30:42 AM 38.6331 -76.4447 23° Northeast 422 486 25,000  Level Washington Center
Fri 06:31:42 AM 38.7419 -76.3847 23° Northeast 422 486 25,000  Level Washington Center
Fri 06:32:42 AM 38.8528 -76.3247 23° Northeast 422 486 25,000  Level Washington Center
Fri 06:33:43 AM 38.9614 -76.2644 23° Northeast 422 486 25,000  Level Washington Center
Fri 06:34:44 AM 39.0703 -76.2039 23° Northeast 422 486 25,000 -397 Level Washington Center
Fri 06:35:44 AM 39.1747 -76.1483 22° Northeast 422 486 24,200 -900 Descending Washington Center
Fri 06:36:44 AM 39.2814 -76.0769 27° Northeast 422 486 23,200 -1,068 Descending Washington Center
Fri 06:37:42 AM 39.3692 -75.9808 40° Northeast 416 479 22,100 -1,068 Descending Washington Center
Fri 06:38:42 AM 39.4464 -75.8872 43° Northeast 402 463 21,100 -900 Descending Washington Center
Fri 06:39:42 AM 39.5050 -75.8147 44° Northeast 381 438 20,300 -550 Descending Washington Center
Fri 06:40:42 AM 39.5947 -75.7100 42° Northeast 368 423 20,000 -148 Descending Washington Center
Fri 06:41:44 AM 39.6697 -75.6239 41° Northeast 363 418 20,000 -504 Level Washington Center
Fri 06:42:41 AM 39.7447 -75.5322 43° Northeast 363 418 19,000 -1,220 Descending Washington Center
Fri 06:43:42 AM 39.8239 -75.4375 43° Northeast 375 432 17,600 -1,525 Descending Washington Center
Fri 06:44:43 AM 39.9050 -75.3400 43° Northeast 381 438 15,900 -1,587 Descending Washington Center
Fri 06:45:43 AM 39.9817 -75.2422 44° Northeast 386 444 14,400 -1,537 Descending Washington Center
Fri 06:46:44 AM 40.0606 -75.1497 42° Northeast 386 444 12,800 -1,625 Descending Washington Center
Fri 06:48:07 AM 40.1667 -75.0167 44° Northeast 338 389 10,500 -1,691 Descending New York TRACON
Fri 06:49:13 AM 40.2333 -74.9333 44° Northeast 309 356 8,600 -1,250 Descending New York TRACON
Fri 06:50:07 AM 40.2833 -74.8500 52° Northeast 302 348 8,000 -500 Descending New York TRACON
Fri 06:51:01 AM 40.3500 -74.7833 37° Northeast 294 338 7,700 -684 Descending New York TRACON
Fri 06:52:01 AM 40.4000 -74.7000 52° Northeast 285 328 6,700 -895 Descending New York TRACON
Fri 06:52:55 AM 40.4667 -74.6667 21° North 287 330 6,000 -368 Descending New York TRACON
Fri 06:53:55 AM 40.5333 -74.6500 11° North 287 330 6,000  Level New York TRACON
Fri 06:54:55 AM 40.6000 -74.6333 11° North 280 322 6,000  Level New York TRACON
Fri 06:55:49 AM 40.6833 -74.6167 North 286 329 6,000 -53 Level New York TRACON
Fri 06:56:49 AM 40.7500 -74.5833 21° North 286 329 5,900 -450 Descending New York TRACON
Fri 06:57:49 AM 40.8167 -74.5167 37° Northeast 282 325 5,100 -450 Descending New York TRACON
Fri 06:58:49 AM 40.8667 -74.4500 45° Northeast 286 329 5,000  Descending New York TRACON
Fri 06:59:49 AM 40.9333 -74.3833 37° Northeast 286 329 5,100 -158 Climbing New York TRACON
Fri 07:00:43 AM 40.9500 -74.2833 78° East 285 328 4,700 -611 Descending New York TRACON
Fri 07:01:37 AM 40.9667 -74.2000 75° East 287 330 4,000 -389 Descending New York TRACON
Fri 07:02:31 AM 40.9333 -74.1333 123° Southeast 247 284 4,000 -211 Level New York TRACON
Fri 07:03:31 AM 40.8667 -74.0833 150° Southeast 234 269 3,600 -650 Descending New York TRACON
Fri 07:04:31 AM 40.8167 -74.0833 180° South 200 230 2,700 -900 Descending New York TRACON

Login

Don't have an account? Register now (free) for customized features, flight alerts, and more!